Time;durP1;ratioP1;P1;durP2;ratioP2;P2;SDS_P1;SDS_P2;PMS_P1;PMS_P2;Temp;Humidity;BMP_temperature;BMP_pressure;BME280_temperature;BME280_humidity;BME280_pressure;Samples;Min_cycle;Max_cycle;Signal;HPM_P1;HPM_P2
2023/08/01 00:00:30;;;;;;;8.40;3.90;;;;;;;16.14;100.00;99683.03;4945816;28;20047;-80
2023/08/01 00:02:58;;;;;;;14.68;3.92;;;;;;;16.14;100.00;99686.59;4936124;28;20660;-81
2023/08/01 00:05:25;;;;;;;16.20;3.75;;;;;;;16.14;100.00;99681.28;4944092;28;20066;-80
2023/08/01 00:07:53;;;;;;;10.05;4.50;;;;;;;16.15;100.00;99679.47;4933937;29;20047;-80
2023/08/01 00:10:21;;;;;;;13.40;4.63;;;;;;;16.16;100.00;99686.50;4952711;28;20420;-81
2023/08/01 00:12:48;;;;;;;15.38;4.10;;;;;;;16.16;100.00;99670.56;4940568;28;20059;-81
2023/08/01 00:15:16;;;;;;;14.65;4.38;;;;;;;16.15;100.00;99671.50;4952126;28;20055;-81
2023/08/01 00:17:46;;;;;;;15.43;5.30;;;;;;;16.14;100.00;99665.31;4907776;28;20047;-81
2023/08/01 00:20:13;;;;;;;19.13;5.30;;;;;;;16.17;100.00;99666.97;4951921;28;20062;-80
2023/08/01 00:22:41;;;;;;;17.15;4.55;;;;;;;16.17;100.00;99659.00;4939770;28;20435;-79
2023/08/01 00:25:09;;;;;;;17.83;5.47;;;;;;;16.15;100.00;99651.09;4950724;29;20051;-80
2023/08/01 00:27:36;;;;;;;14.13;4.88;;;;;;;16.16;100.00;99654.59;4946472;28;20055;-79
2023/08/01 00:30:08;;;;;;;12.45;5.28;;;;;;;16.14;100.00;99654.69;4947466;28;20043;-79
2023/08/01 00:32:36;;;;;;;13.55;4.63;;;;;;;16.11;100.00;99657.44;4906627;28;20058;-82
2023/08/01 00:35:04;;;;;;;17.80;5.35;;;;;;;16.12;100.00;99650.34;4948818;28;20050;-81
2023/08/01 00:37:32;;;;;;;18.23;5.93;;;;;;;16.09;100.00;99647.81;4936529;28;20059;-80
2023/08/01 00:39:59;;;;;;;18.70;5.57;;;;;;;16.08;100.00;99646.94;4940374;28;20062;-81
2023/08/01 00:42:27;;;;;;;15.60;5.38;;;;;;;16.07;100.00;99645.22;4947485;28;20064;-80
2023/08/01 00:44:54;;;;;;;16.98;5.28;;;;;;;16.07;100.00;99639.03;4911239;29;20071;-80
2023/08/01 00:47:24;;;;;;;15.63;4.78;;;;;;;16.05;100.00;99631.13;4952756;29;20059;-79
2023/08/01 00:49:54;;;;;;;15.75;4.43;;;;;;;16.03;100.00;99618.81;4920390;28;20055;-80
2023/08/01 00:52:22;;;;;;;12.13;5.28;;;;;;;16.00;100.00;99624.25;4952545;28;20051;-79
2023/08/01 00:54:50;;;;;;;16.00;5.20;;;;;;;15.95;100.00;99617.34;4938562;28;20051;-80
2023/08/01 00:57:20;;;;;;;13.60;4.72;;;;;;;15.94;100.00;99615.59;4951861;28;20066;-79
2023/08/01 00:59:47;;;;;;;9.75;4.75;;;;;;;15.91;100.00;99613.03;4937048;28;20094;-80
2023/08/01 01:02:15;;;;;;;13.90;5.57;;;;;;;15.90;100.00;99616.63;4934634;28;20047;-80
2023/08/01 01:04:43;;;;;;;12.50;4.38;;;;;;;15.88;100.00;99612.28;4909468;28;20055;-80
2023/08/01 01:07:12;;;;;;;13.75;4.68;;;;;;;15.87;100.00;99610.56;4942137;28;20051;-80
2023/08/01 01:09:44;;;;;;;11.80;5.03;;;;;;;15.85;100.00;99613.28;4970618;28;20040;-82
2023/08/01 01:12:13;;;;;;;15.40;4.30;;;;;;;15.84;100.00;99616.88;4941868;29;20051;-80
2023/08/01 01:14:41;;;;;;;11.63;5.00;;;;;;;15.82;100.00;99618.69;4938694;28;20062;-79
2023/08/01 01:17:09;;;;;;;11.70;5.28;;;;;;;15.77;100.00;99621.53;4958860;28;20516;-80
2023/08/01 01:19:38;;;;;;;11.63;4.65;;;;;;;15.75;100.00;99617.22;4910612;28;20058;-79
2023/08/01 01:22:07;;;;;;;10.95;5.07;;;;;;;15.72;100.00;99606.66;4946399;28;20046;-81
2023/08/01 01:24:35;;;;;;;13.60;4.68;;;;;;;15.71;100.00;99612.94;4937993;28;20054;-81
2023/08/01 01:27:04;;;;;;;9.50;4.78;;;;;;;15.69;100.00;99622.72;4948460;28;20039;-79
2023/08/01 01:29:33;;;;;;;16.17;5.72;;;;;;;15.69;100.00;99614.75;4946375;28;20051;-82
2023/08/01 01:32:01;;;;;;;13.88;4.72;;;;;;;15.70;100.00;99616.50;4945909;28;20786;-80
2023/08/01 01:34:29;;;;;;;10.68;4.70;;;;;;;15.67;100.00;99608.63;4920672;28;20062;-81
2023/08/01 01:36:57;;;;;;;12.02;4.88;;;;;;;15.67;100.00;99606.88;4963543;28;20051;-80
2023/08/01 01:39:24;;;;;;;11.55;5.03;;;;;;;15.64;100.00;99609.63;4942373;28;20046;-80
2023/08/01 01:41:52;;;;;;;12.30;4.47;;;;;;;15.62;100.00;99605.31;4940903;28;20122;-80
2023/08/01 01:44:20;;;;;;;12.32;4.88;;;;;;;15.58;100.00;99600.09;4947250;29;20512;-80
2023/08/01 01:46:49;;;;;;;15.93;6.85;;;;;;;15.57;100.00;99600.16;4921137;28;20543;-80
2023/08/01 01:49:24;;;;;;;13.45;4.22;;;;;;;15.52;100.00;99589.72;4919685;28;20055;-80
2023/08/01 01:51:52;;;;;;;13.35;4.95;;;;;;;15.49;100.00;99586.31;4963254;28;20532;-81
2023/08/01 01:54:21;;;;;;;15.77;5.55;;;;;;;15.45;100.00;99582.88;4943500;28;20051;-81
2023/08/01 01:56:48;;;;;;;9.57;4.88;;;;;;;15.40;100.00;99580.38;4938193;28;20413;-80
2023/08/01 01:59:17;;;;;;;12.13;4.20;;;;;;;15.37;100.00;99579.66;4935322;29;20051;-80
2023/08/01 02:01:44;;;;;;;11.52;4.65;;;;;;;15.34;100.00;99571.81;4946156;28;20047;-80
2023/08/01 02:04:12;;;;;;;8.55;4.63;;;;;;;15.30;100.00;99570.19;4934046;29;20054;-80
2023/08/01 02:06:41;;;;;;;12.30;4.50;;;;;;;15.29;100.00;99571.09;4911748;28;20505;-80
2023/08/01 02:09:10;;;;;;;11.70;4.38;;;;;;;15.26;100.00;99566.78;4951391;28;20055;-80
2023/08/01 02:11:37;;;;;;;23.48;5.22;;;;;;;15.27;100.00;99567.63;4926434;28;20522;-80
2023/08/01 02:14:05;;;;;;;14.80;4.80;;;;;;;15.25;100.00;99562.38;4952204;28;20054;-80
2023/08/01 02:16:32;;;;;;;14.30;5.30;;;;;;;15.23;100.00;99563.38;4981651;28;20504;-80
2023/08/01 02:19:00;;;;;;;14.75;5.38;;;;;;;15.23;100.00;99558.06;4931922;29;20036;-80
2023/08/01 02:21:27;;;;;;;23.17;5.75;;;;;;;15.23;100.00;99560.72;4917489;28;20051;-81
2023/08/01 02:23:55;;;;;;;13.98;4.80;;;;;;;15.21;100.00;99552.78;4994169;28;20074;-81
2023/08/01 02:26:23;;;;;;;12.38;4.70;;;;;;;15.21;100.00;99555.44;4952937;29;20047;-80
2023/08/01 02:28:52;;;;;;;8.05;4.47;;;;;;;15.20;100.00;99551.94;4944250;28;20051;-80
2023/08/01 02:31:20;;;;;;;8.30;4.45;;;;;;;15.20;100.00;99551.94;4947019;29;21468;-80
2023/08/01 02:33:48;;;;;;;11.25;5.43;;;;;;;15.19;100.00;99550.19;4940389;28;20562;-79
2023/08/01 02:36:16;;;;;;;18.52;4.65;;;;;;;15.17;100.00;99554.69;4969131;28;20059;-80
2023/08/01 02:38:43;;;;;;;12.73;5.00;;;;;;;15.12;100.00;99559.31;4901276;28;20066;-80
2023/08/01 02:41:10;;;;;;;12.27;4.78;;;;;;;15.08;100.00;99560.31;4936071;29;20050;-80
2023/08/01 02:43:38;;;;;;;8.85;5.13;;;;;;;15.06;100.00;99556.88;4937325;28;20492;-81
2023/08/01 02:46:05;;;;;;;15.82;5.07;;;;;;;15.02;100.00;99561.41;4966467;28;20039;-80
2023/08/01 02:48:34;;;;;;;13.13;5.70;;;;;;;14.98;100.00;99564.25;4943614;28;20047;-79
2023/08/01 02:51:02;;;;;;;9.57;5.25;;;;;;;14.95;100.00;99557.28;4935803;29;20574;-80
2023/08/01 02:53:30;;;;;;;10.35;4.82;;;;;;;14.94;100.00;99562.63;4954514;28;20059;-80
2023/08/01 02:55:57;;;;;;;6.90;4.80;;;;;;;14.91;100.00;99549.47;4942256;28;20479;-81
2023/08/01 02:58:25;;;;;;;14.18;4.95;;;;;;;14.88;100.00;99549.59;4934366;29;20055;-80
2023/08/01 03:00:52;;;;;;;8.35;4.53;;;;;;;14.84;100.00;99550.59;4950821;28;20047;-80
2023/08/01 03:03:19;;;;;;;12.32;4.72;;;;;;;14.79;100.00;99541.00;4945946;28;20054;-80
2023/08/01 03:05:47;;;;;;;12.77;4.13;;;;;;;14.76;100.00;99551.75;4957017;28;20077;-80
2023/08/01 03:08:15;;;;;;;13.13;4.75;;;;;;;14.74;100.00;99553.56;4958814;28;20059;-80
2023/08/01 03:10:45;;;;;;;10.60;4.45;;;;;;;14.72;100.00;99552.75;4914379;28;20047;-80
2023/08/01 03:13:13;;;;;;;10.90;4.63;;;;;;;14.69;100.00;99549.34;4946347;28;20035;-80
2023/08/01 03:15:40;;;;;;;6.97;4.40;;;;;;;14.65;100.00;99555.66;4941274;28;20657;-81
2023/08/01 03:18:07;;;;;;;13.10;4.60;;;;;;;14.61;100.00;99555.78;4944830;28;20106;-80
2023/08/01 03:20:35;;;;;;;9.98;4.55;;;;;;;14.61;100.00;99549.59;4944214;28;20476;-79
2023/08/01 03:23:02;;;;;;;13.88;5.20;;;;;;;14.60;100.00;99545.22;4936867;29;20378;-81
2023/08/01 03:25:31;;;;;;;11.35;4.32;;;;;;;14.59;100.00;99549.69;4911521;28;20055;-80
2023/08/01 03:27:58;;;;;;;10.38;4.47;;;;;;;14.59;100.00;99543.47;4941391;28;20579;-80
2023/08/01 03:30:27;;;;;;;12.02;4.35;;;;;;;14.60;100.00;99534.63;4949237;29;20047;-80
2023/08/01 03:32:55;;;;;;;8.27;3.95;;;;;;;14.60;100.00;99535.47;4934943;29;20116;-80
2023/08/01 03:35:23;;;;;;;13.40;4.70;;;;;;;14.61;100.00;99536.34;4941667;28;20050;-81
2023/08/01 03:37:51;;;;;;;6.65;4.22;;;;;;;14.62;100.00;99543.38;4948917;28;20062;-80
2023/08/01 03:40:19;;;;;;;12.52;4.85;;;;;;;14.65;100.00;99540.66;4952270;29;20051;-80
2023/08/01 03:42:47;;;;;;;9.90;4.60;;;;;;;14.69;100.00;99541.38;4938078;28;20050;-80
2023/08/01 03:45:14;;;;;;;9.63;4.20;;;;;;;14.71;100.00;99545.72;4951273;29;20043;-80
2023/08/01 03:47:41;;;;;;;11.10;5.20;;;;;;;14.73;100.00;99535.94;4940134;28;20077;-82
2023/08/01 03:50:09;;;;;;;9.75;4.50;;;;;;;14.74;100.00;99542.94;4943914;28;20052;-81
2023/08/01 03:52:38;;;;;;;11.95;4.55;;;;;;;14.74;100.00;99550.91;4948408;29;20047;-80
2023/08/01 03:55:05;;;;;;;9.88;4.70;;;;;;;14.75;100.00;99539.41;4947522;28;20061;-80
2023/08/01 03:57:33;;;;;;;9.65;4.85;;;;;;;14.77;100.00;99549.97;4895966;28;20492;-80
2023/08/01 04:00:03;;;;;;;10.65;5.47;;;;;;;14.76;100.00;99541.16;4931846;28;20055;-80
2023/08/01 04:02:41;;;;;;;17.42;5.30;;;;;;;14.79;100.00;99542.81;4945663;28;20058;-80
2023/08/01 04:05:12;;;;;;;14.95;5.18;;;;;;;14.80;100.00;99552.47;4974284;28;20051;-81
2023/08/01 04:07:39;;;;;;;11.05;4.82;;;;;;;14.78;100.00;99560.50;4933358;28;20062;-79
2023/08/01 04:10:07;;;;;;;17.08;5.93;;;;;;;14.78;100.00;99557.88;4945843;29;20047;-79
2023/08/01 04:12:36;;;;;;;14.70;5.55;;;;;;;14.78;100.00;99559.63;4916537;28;20052;-80
2023/08/01 04:15:03;;;;;;;14.93;5.93;;;;;;;14.79;100.00;99562.22;4950246;29;20039;-81
2023/08/01 04:17:31;;;;;;;8.75;5.03;;;;;;;14.79;100.00;99559.56;4938634;28;20063;-81
2023/08/01 04:19:58;;;;;;;7.35;5.10;;;;;;;14.80;100.00;99563.09;4950108;28;20050;-80
2023/08/01 04:22:27;;;;;;;9.60;4.65;;;;;;;14.78;100.00;99549.00;4923531;28;20047;-81
2023/08/01 04:24:54;;;;;;;5.40;4.00;;;;;;;14.77;100.00;99557.91;4951846;28;20047;-81
2023/08/01 04:27:22;;;;;;;7.82;4.45;;;;;;;14.76;100.00;99561.47;4912164;28;20063;-81
2023/08/01 04:29:50;;;;;;;9.38;3.85;;;;;;;14.74;100.00;99564.16;4932253;28;20052;-81
2023/08/01 04:32:17;;;;;;;8.50;4.15;;;;;;;14.73;100.00;99566.91;4940341;28;20216;-82
2023/08/01 04:34:45;;;;;;;11.80;4.10;;;;;;;14.72;100.00;99566.00;4983002;28;20048;-81
2023/08/01 04:37:12;;;;;;;9.60;4.18;;;;;;;14.72;100.00;99563.34;4942539;28;20070;-82
2023/08/01 04:39:39;;;;;;;10.75;3.97;;;;;;;14.74;100.00;99552.69;4942151;28;20055;-81
2023/08/01 04:42:07;;;;;;;5.22;3.65;;;;;;;14.75;100.00;99549.16;4916288;28;20047;-80
2023/08/01 04:44:34;;;;;;;11.88;4.03;;;;;;;14.76;100.00;99545.56;4970727;28;20051;-81
2023/08/01 04:47:02;;;;;;;11.55;4.10;;;;;;;14.77;100.00;99553.47;4979938;28;20047;-81
2023/08/01 04:49:30;;;;;;;10.00;4.53;;;;;;;14.77;100.00;99550.81;4944455;28;20047;-81
2023/08/01 04:51:58;;;;;;;10.45;4.63;;;;;;;14.77;100.00;99550.81;4932958;28;20035;-80
2023/08/01 04:54:25;;;;;;;9.65;3.88;;;;;;;14.79;100.00;99554.28;4930450;29;20066;-82
2023/08/01 04:56:53;;;;;;;13.75;4.60;;;;;;;14.80;100.00;99558.66;4951321;28;20047;-81
2023/08/01 04:59:20;;;;;;;12.20;3.70;;;;;;;14.82;100.00;99554.19;4912011;28;20047;-79
2023/08/01 05:01:47;;;;;;;9.32;4.53;;;;;;;14.86;100.00;99554.06;4950857;28;20059;-80
2023/08/01 05:04:15;;;;;;;11.27;3.42;;;;;;;14.89;100.00;99551.31;4925578;28;20055;-80
2023/08/01 05:06:42;;;;;;;10.98;3.90;;;;;;;15.08;100.00;99546.22;4937473;28;20146;-81
2023/08/01 05:09:09;;;;;;;8.82;3.03;;;;;;;15.58;100.00;99549.66;4934599;28;20416;-80
2023/08/01 05:11:37;;;;;;;6.68;2.78;;;;;;;15.73;100.00;99556.19;4935393;28;20501;-81
2023/08/01 05:14:06;;;;;;;7.18;2.50;;;;;;;16.12;100.00;99549.34;4910955;28;20061;-79
2023/08/01 05:16:34;;;;;;;10.98;3.42;;;;;;;16.28;100.00;99546.97;4947532;29;20055;-81
2023/08/01 05:19:02;;;;;;;6.68;2.20;;;;;;;16.29;100.00;99543.34;4939926;28;20093;-80
2023/08/01 05:21:30;;;;;;;5.80;2.38;;;;;;;16.47;100.00;99553.22;4972587;28;20028;-81
2023/08/01 05:23:58;;;;;;;7.28;2.50;;;;;;;16.48;100.00;99548.78;4938758;28;20044;-81
2023/08/01 05:26:26;;;;;;;4.20;2.10;;;;;;;16.69;100.00;99553.22;4934035;28;20048;-81
2023/08/01 05:28:54;;;;;;;7.13;1.90;;;;;;;17.33;100.00;99538.91;4947734;28;20066;-80
2023/08/01 05:31:21;;;;;;;6.85;2.30;;;;;;;17.66;100.00;99546.25;4915431;28;20587;-82
2023/08/01 05:33:49;;;;;;;7.28;1.98;;;;;;;17.67;100.00;99547.97;4950940;28;20929;-80
2023/08/01 05:36:16;;;;;;;4.95;1.95;;;;;;;17.69;100.00;99547.88;4940431;28;20776;-80
2023/08/01 05:38:44;;;;;;;8.02;2.25;;;;;;;17.68;100.00;99548.84;4925738;29;20047;-80
2023/08/01 05:41:12;;;;;;;3.65;1.75;;;;;;;17.73;100.00;99552.13;4969396;28;20066;-80
2023/08/01 05:43:40;;;;;;;6.97;2.00;;;;;;;17.80;100.00;99550.91;4948193;29;20047;-81
2023/08/01 05:46:07;;;;;;;4.68;1.80;;;;;;;18.07;100.00;99555.91;4936668;28;20046;-81
2023/08/01 05:48:34;;;;;;;8.60;1.65;;;;;;;18.33;100.00;99543.97;4939610;28;20055;-81
2023/08/01 05:51:02;;;;;;;5.35;1.92;;;;;;;18.47;100.00;99546.81;4972546;28;20062;-81
2023/08/01 05:53:30;;;;;;;5.30;2.20;;;;;;;18.45;100.00;99554.03;4941348;28;20492;-81
2023/08/01 05:55:57;;;;;;;3.95;2.15;;;;;;;18.22;100.00;99549.84;4929083;28;20499;-80
2023/08/01 05:58:25;;;;;;;3.88;1.88;;;;;;;17.92;100.00;99558.38;4972674;28;20078;-81
2023/08/01 06:00:56;;;;;;;4.78;2.10;;;;;;;17.65;100.00;99555.16;4924658;28;20066;-80
2023/08/01 06:03:23;;;;;;;5.38;1.95;;;;;;;17.40;100.00;99562.56;4932781;29;20047;-82
2023/08/01 06:05:52;;;;;;;6.80;2.08;;;;;;;17.08;100.00;99563.06;4958834;28;20062;-80
2023/08/01 06:08:20;;;;;;;6.43;1.80;;;;;;;16.86;100.00;99560.50;4965146;28;20054;-80
2023/08/01 06:10:47;;;;;;;5.13;1.92;;;;;;;16.67;100.00;99564.81;4943740;28;20142;-82
2023/08/01 06:13:15;;;;;;;5.35;2.15;;;;;;;16.57;100.00;99561.69;4914067;28;20078;-81
2023/08/01 06:15:44;;;;;;;4.57;2.25;;;;;;;16.47;100.00;99568.34;4945253;28;20051;-81
2023/08/01 06:18:12;;;;;;;11.02;1.95;;;;;;;16.40;100.00;99572.16;4939663;28;20062;-81
2023/08/01 06:20:39;;;;;;;5.40;1.90;;;;;;;16.35;100.00;99567.03;4961905;28;20047;-82
2023/08/01 06:23:07;;;;;;;5.03;2.40;;;;;;;16.29;100.00;99576.09;4933972;28;20050;-81
2023/08/01 06:25:34;;;;;;;6.55;2.00;;;;;;;16.25;100.00;99571.84;4941186;28;20051;-81
2023/08/01 06:28:02;;;;;;;8.48;2.20;;;;;;;16.23;100.00;99572.84;4944114;28;20051;-82
2023/08/01 06:30:30;;;;;;;3.35;1.77;;;;;;;16.21;100.00;99572.06;4947871;28;20051;-81
2023/08/01 06:32:57;;;;;;;4.68;1.95;;;;;;;16.13;100.00;99572.38;4897324;28;20432;-81
2023/08/01 06:35:24;;;;;;;6.57;2.38;;;;;;;16.07;100.00;99585.91;4960464;28;20058;-80
2023/08/01 06:37:52;;;;;;;5.85;2.45;;;;;;;16.03;100.00;99576.28;4917878;28;20059;-81
2023/08/01 06:40:19;;;;;;;3.63;2.03;;;;;;;16.00;100.00;99573.78;4948991;28;20051;-80
2023/08/01 06:42:52;;;;;;;3.40;1.70;;;;;;;15.92;100.00;99574.09;4976515;28;20081;-80
2023/08/01 06:45:20;;;;;;;5.22;2.50;;;;;;;15.86;100.00;99572.53;4954030;28;20043;-80
2023/08/01 06:47:49;;;;;;;4.18;1.83;;;;;;;15.85;100.00;99577.91;4905252;28;20070;-81
2023/08/01 06:50:16;;;;;;;4.38;2.15;;;;;;;15.80;100.00;99578.06;4953056;28;20047;-80
2023/08/01 06:52:44;;;;;;;6.50;1.98;;;;;;;15.78;100.00;99582.56;4917978;29;20051;-81
2023/08/01 06:55:11;;;;;;;4.32;2.42;;;;;;;15.65;100.00;99579.50;4933421;28;20043;-81
2023/08/01 06:57:39;;;;;;;5.82;2.42;;;;;;;15.58;100.00;99580.66;4946592;28;20479;-81
2023/08/01 07:00:07;;;;;;;5.43;2.05;;;;;;;15.54;100.00;99579.03;4947409;28;20054;-81
2023/08/01 07:02:35;;;;;;;8.30;2.53;;;;;;;15.51;100.00;99576.47;4947691;28;20051;-80
2023/08/01 07:05:02;;;;;;;4.03;1.98;;;;;;;15.50;100.00;99575.63;4910597;28;20047;-82
2023/08/01 07:07:30;;;;;;;3.60;1.75;;;;;;;15.52;100.00;99580.84;4919890;28;20054;-81
2023/08/01 07:09:57;;;;;;;4.32;1.73;;;;;;;15.51;100.00;99561.41;4914196;28;20070;-79
2023/08/01 07:12:25;;;;;;;3.38;2.10;;;;;;;15.53;100.00;99570.19;4946870;29;20047;-80
2023/08/01 07:14:53;;;;;;;3.78;1.67;;;;;;;15.53;100.00;99586.13;4933094;28;20058;-80
2023/08/01 07:17:20;;;;;;;3.10;1.83;;;;;;;15.50;100.00;99578.28;4949001;29;20051;-80
2023/08/01 07:19:48;;;;;;;4.38;1.77;;;;;;;15.55;100.00;99580.75;4915318;28;20047;-81
2023/08/01 07:22:15;;;;;;;3.08;1.65;;;;;;;15.60;100.00;99569.03;4930515;28;20088;-81
2023/08/01 07:24:42;;;;;;;4.50;1.48;;;;;;;15.66;100.00;99567.94;4936319;28;20039;-81
2023/08/01 07:27:11;;;;;;;2.72;1.60;;;;;;;15.73;100.00;99573.91;4920705;29;20051;-82
2023/08/01 07:29:41;;;;;;;3.35;2.17;;;;;;;15.81;100.00;99573.63;4956331;28;20441;-81
2023/08/01 07:32:08;;;;;;;4.20;1.80;;;;;;;15.92;100.00;99569.63;4961778;28;20539;-82
2023/08/01 07:34:35;;;;;;;3.30;1.58;;;;;;;16.04;100.00;99562.09;4899688;28;20059;-80
2023/08/01 07:37:03;;;;;;;4.30;1.40;;;;;;;16.22;100.00;99569.34;4958612;28;20505;-80
2023/08/01 07:39:31;;;;;;;2.95;1.60;;;;;;;16.37;100.00;99552.75;4942538;28;20050;-80
2023/08/01 07:41:58;;;;;;;3.55;1.20;;;;;;;16.55;100.00;99561.75;4943494;28;20051;-80
2023/08/01 07:44:26;;;;;;;3.58;1.40;;;;;;;16.61;100.00;99568.59;4938602;28;20035;-81
2023/08/01 07:46:53;;;;;;;2.88;1.25;;;;;;;16.71;100.00;99566.41;4956458;28;20055;-81
2023/08/01 07:49:21;;;;;;;4.72;1.73;;;;;;;16.77;100.00;99569.69;4951474;28;20523;-81
2023/08/01 07:51:49;;;;;;;1.95;1.42;;;;;;;16.83;100.00;99565.94;4930395;28;20070;-81
2023/08/01 07:54:16;;;;;;;2.95;1.33;;;;;;;16.84;100.00;99572.13;4936847;28;20043;-81
2023/08/01 07:56:45;;;;;;;2.40;1.20;;;;;;;16.84;100.00;99564.13;4969397;28;20048;-81
2023/08/01 07:59:13;;;;;;;1.52;1.00;;;;;;;16.81;100.00;99565.09;4934791;28;20055;-80
2023/08/01 08:01:41;;;;;;;4.25;1.30;;;;;;;16.82;100.00;99564.19;4939233;28;20057;-80
2023/08/01 08:04:08;;;;;;;4.13;1.33;;;;;;;16.83;100.00;99571.25;4948820;28;20519;-81
2023/08/01 08:06:36;;;;;;;5.05;1.20;;;;;;;16.73;100.00;99564.59;4914111;28;20055;-80
2023/08/01 08:09:05;;;;;;;2.05;1.02;;;;;;;16.73;100.00;99556.59;4926752;28;20046;-81
2023/08/01 08:11:33;;;;;;;4.20;1.00;;;;;;;16.71;100.00;99561.97;4925049;28;20055;-80
2023/08/01 08:14:01;;;;;;;1.63;1.08;;;;;;;16.69;100.00;99563.84;4937837;28;20050;-80
2023/08/01 08:16:29;;;;;;;1.95;1.05;;;;;;;16.66;100.00;99558.66;4967560;28;20055;-81
2023/08/01 08:18:57;;;;;;;7.95;1.55;;;;;;;16.60;100.00;99563.34;4948449;29;20047;-81
2023/08/01 08:21:24;;;;;;;6.28;1.35;;;;;;;16.51;100.00;99559.28;4933911;28;20055;-80
2023/08/01 08:23:52;;;;;;;6.70;1.35;;;;;;;16.46;100.00;99564.78;4954668;28;20038;-82
2023/08/01 08:26:20;;;;;;;3.38;1.42;;;;;;;16.43;100.00;99564.06;4926447;28;20626;-81
2023/08/01 08:28:47;;;;;;;4.13;1.65;;;;;;;16.41;100.00;99564.13;4941852;28;20055;-82
2023/08/01 08:31:14;;;;;;;3.95;1.08;;;;;;;16.36;100.00;99568.75;4930064;28;20050;-81
2023/08/01 08:33:42;;;;;;;2.80;0.98;;;;;;;16.30;100.00;99558.38;4924246;29;20052;-80
2023/08/01 08:36:09;;;;;;;4.47;1.27;;;;;;;16.30;100.00;99559.25;4904690;29;20043;-80
2023/08/01 08:38:36;;;;;;;4.50;1.38;;;;;;;16.28;100.00;99560.25;4949224;28;20046;-80
2023/08/01 08:41:19;;;;;;;4.55;1.02;;;;;;;16.33;100.00;99556.47;4931227;28;20602;-80
2023/08/01 08:43:49;;;;;;;3.42;1.00;;;;;;;16.48;100.00;99562.97;4943035;28;20420;-81
2023/08/01 08:46:17;;;;;;;2.90;0.98;;;;;;;16.54;100.00;99567.13;4951999;28;20062;-80
2023/08/01 08:48:46;;;;;;;6.80;1.23;;;;;;;16.60;100.00;99560.69;4948797;28;20055;-80
2023/08/01 08:51:14;;;;;;;5.10;1.20;;;;;;;16.68;100.00;99570.06;4923254;28;20058;-81
2023/08/01 08:53:43;;;;;;;5.03;1.50;;;;;;;16.76;100.00;99569.75;4935333;28;20043;-80
2023/08/01 08:56:11;;;;;;;2.55;1.20;;;;;;;16.79;100.00;99574.94;4938357;28;20069;-80
2023/08/01 08:58:38;;;;;;;3.80;1.10;;;;;;;16.86;100.00;99576.47;4936296;28;20804;-82
2023/08/01 09:01:07;;;;;;;3.75;1.00;;;;;;;16.94;100.00;99581.44;4934751;28;20047;-80
2023/08/01 09:03:36;;;;;;;3.58;1.23;;;;;;;16.96;100.00;99584.91;4949870;28;20059;-80
2023/08/01 09:06:15;;;;;;;3.60;1.00;;;;;;;16.79;100.00;99576.75;4933978;28;20631;-83
2023/08/01 09:09:01;;;;;;;1.27;0.80;;;;;;;16.62;100.00;99577.47;4959849;28;20051;-81
2023/08/01 09:11:28;;;;;;;1.25;0.98;;;;;;;16.42;100.00;99578.28;4939244;29;20390;-80
2023/08/01 09:13:56;;;;;;;4.70;1.35;;;;;;;16.34;100.00;99592.75;4935216;29;20051;-82
2023/08/01 09:16:23;;;;;;;3.33;1.20;;;;;;;16.28;100.00;99594.81;4925522;28;20055;-81
2023/08/01 09:18:52;;;;;;;2.70;1.15;;;;;;;16.21;100.00;99590.66;4937165;28;20062;-81
2023/08/01 09:21:21;;;;;;;1.35;0.80;;;;;;;16.12;100.00;99602.50;4953811;29;20055;-80
2023/08/01 09:23:49;;;;;;;2.55;1.05;;;;;;;16.09;100.00;99600.84;4917684;28;20066;-80
2023/08/01 09:26:18;;;;;;;1.50;1.10;;;;;;;16.10;100.00;99607.88;4951692;28;20063;-80
2023/08/01 09:28:56;;;;;;;2.45;1.10;;;;;;;16.09;100.00;99605.31;4936903;28;20074;-81
2023/08/01 09:31:29;;;;;;;3.25;1.58;;;;;;;16.20;100.00;99613.72;4937761;28;20051;-81
2023/08/01 09:33:58;;;;;;;1.70;0.95;;;;;;;16.29;100.00;99613.31;4935179;28;20059;-81
2023/08/01 09:36:26;;;;;;;1.70;1.35;;;;;;;16.30;100.00;99612.41;4949364;28;20412;-82
2023/08/01 09:39:02;;;;;;;4.07;1.45;;;;;;;16.30;100.00;99624.84;4925842;28;20055;-81
2023/08/01 09:41:30;;;;;;;4.07;1.60;;;;;;;16.29;100.00;99613.31;4962867;28;20054;-82
2023/08/01 09:43:58;;;;;;;2.03;1.05;;;;;;;16.27;100.00;99609.88;4961807;28;20055;-81
2023/08/01 09:46:26;;;;;;;2.22;0.90;;;;;;;16.27;100.00;99617.84;4947102;28;20051;-81
2023/08/01 09:48:54;;;;;;;2.38;0.90;;;;;;;16.24;100.00;99609.13;4929257;29;20043;-81
2023/08/01 09:51:21;;;;;;;1.63;0.80;;;;;;;16.19;100.00;99614.63;4928333;29;20492;-82
2023/08/01 09:53:58;;;;;;;2.55;0.88;;;;;;;16.16;100.00;99609.44;4935868;29;20044;-81
2023/08/01 09:56:27;;;;;;;3.33;1.52;;;;;;;16.24;100.00;99625.06;4937017;28;20059;-81
2023/08/01 09:58:56;;;;;;;4.90;1.38;;;;;;;16.44;100.00;99618.97;4957904;28;20477;-81
2023/08/01 10:01:27;;;;;;;3.45;2.03;;;;;;;16.70;100.00;99621.41;4942859;28;20062;-81
2023/08/01 10:03:56;;;;;;;4.43;1.40;;;;;;;17.00;100.00;99626.41;4952045;28;20531;-79
2023/08/01 10:06:28;;;;;;;2.35;0.90;;;;;;;17.28;100.00;99614.56;4937631;28;20071;-80
2023/08/01 10:08:56;;;;;;;6.35;1.42;;;;;;;17.38;100.00;99623.88;4954340;28;20055;-79
2023/08/01 10:11:24;;;;;;;4.40;1.10;;;;;;;17.36;100.00;99633.72;4948598;28;20572;-81
2023/08/01 10:13:51;;;;;;;3.60;1.10;;;;;;;17.30;100.00;99623.38;4968002;28;20058;-80
2023/08/01 10:16:20;;;;;;;5.13;1.30;;;;;;;17.23;100.00;99625.41;4937202;28;21013;-80
2023/08/01 10:18:49;;;;;;;2.92;1.08;;;;;;;17.26;100.00;99621.78;4955932;28;20055;-81
2023/08/01 10:21:18;;;;;;;4.55;1.17;;;;;;;17.44;100.00;99614.75;4930364;29;20066;-81
2023/08/01 10:23:46;;;;;;;2.83;1.00;;;;;;;17.59;100.00;99619.38;4940948;29;20060;-81
2023/08/01 10:26:15;;;;;;;3.28;1.10;;;;;;;17.68;100.00;99615.44;4919733;28;20067;-80
2023/08/01 10:28:51;;;;;;;4.53;1.20;;;;;;;17.68;100.00;99629.63;4952716;28;20443;-82
2023/08/01 10:31:21;;;;;;;3.45;1.20;;;;;;;17.65;100.00;99631.56;4943830;28;20051;-81
2023/08/01 10:33:49;;;;;;;2.90;1.10;;;;;;;17.42;100.00;99644.09;4944155;28;20059;-81
2023/08/01 10:36:32;;;;;;;4.45;0.90;;;;;;;17.22;100.00;99641.44;4933378;28;20463;-81
2023/08/01 10:39:02;;;;;;;3.42;1.02;;;;;;;17.05;100.00;99639.50;4968719;28;20055;-80
2023/08/01 10:41:30;;;;;;;2.72;1.00;;;;;;;17.03;100.00;99650.25;4936506;28;20066;-81
2023/08/01 10:44:15;;;;;;;2.65;1.10;;;;;;;17.01;100.00;99645.91;4970762;28;20423;-81
2023/08/01 10:46:49;;;;;;;4.45;1.17;;;;;;;17.06;100.00;99649.25;4943606;28;20051;-80
2023/08/01 10:49:18;;;;;;;3.25;1.35;;;;;;;17.12;100.00;99647.16;4944336;28;20069;-82
2023/08/01 10:51:47;;;;;;;6.53;1.80;;;;;;;17.27;100.00;99647.44;4948078;28;20054;-80
2023/08/01 10:54:22;;;;;;;4.05;1.30;;;;;;;17.46;100.00;99637.69;4951571;28;20042;-81
2023/08/01 10:56:53;;;;;;;8.23;1.35;;;;;;;17.57;100.00;99647.03;4934656;28;20047;-81
2023/08/01 10:59:22;;;;;;;;;;;;;;;17.64;100.00;99640.50;4969224;28;20054;-80
2023/08/01 11:01:54;;;;;;;6.18;1.65;;;;;;;17.69;100.00;99649.13;4929452;29;19926;-81
2023/08/01 11:04:23;;;;;;;6.53;1.70;;;;;;;17.69;100.00;99642.03;4945255;28;20058;-81
2023/08/01 11:06:52;;;;;;;7.18;2.35;;;;;;;17.73;100.00;99643.59;4953846;28;20067;-80
2023/08/01 11:09:26;;;;;;;5.72;1.75;;;;;;;17.76;100.00;99649.72;4946375;28;20063;-80
2023/08/01 11:11:57;;;;;;;8.57;2.55;;;;;;;17.71;100.00;99656.13;4928956;28;20047;-81
2023/08/01 11:14:26;;;;;;;7.60;1.50;;;;;;;17.67;100.00;99664.31;4959127;28;20066;-81
2023/08/01 11:16:58;;;;;;;5.28;1.38;;;;;;;17.66;100.00;99651.94;4951210;28;20035;-82
2023/08/01 11:19:28;;;;;;;11.13;2.05;;;;;;;17.66;100.00;99659.94;4975878;28;20059;-81
2023/08/01 11:21:57;;;;;;;5.18;1.38;;;;;;;17.73;100.00;99669.38;4936329;29;20073;-81
2023/08/01 11:24:26;;;;;;;2.75;1.10;;;;;;;17.97;100.00;99663.91;4943553;28;20051;-81
2023/08/01 11:26:54;;;;;;;6.10;1.55;;;;;;;18.17;100.00;99663.84;4926904;28;20047;-81